createdAt,value
2022-07-25T00:01:46.633Z,97.20
2022-07-25T00:04:16.061Z,97.40
2022-07-25T00:06:44.364Z,97.30
2022-07-25T00:09:11.860Z,97.50
2022-07-25T00:11:39.394Z,97.50
2022-07-25T00:14:10.009Z,97.40
2022-07-25T00:16:39.507Z,97.50
2022-07-25T00:19:07.769Z,97.90
2022-07-25T00:21:35.240Z,97.90
2022-07-25T00:24:04.304Z,98.20
2022-07-25T00:26:35.428Z,97.80
2022-07-25T00:29:05.635Z,98.10
2022-07-25T00:31:33.071Z,98.10
2022-07-25T00:34:00.567Z,98.00
2022-07-25T00:36:28.002Z,98.30
2022-07-25T00:38:55.768Z,98.00
2022-07-25T00:41:23.847Z,98.00
2022-07-25T00:43:51.524Z,98.20
2022-07-25T00:46:19.405Z,98.00
2022-07-25T00:48:48.894Z,98.10
2022-07-25T00:51:16.715Z,98.30
2022-07-25T00:53:45.090Z,98.00
2022-07-25T00:56:12.846Z,98.10
2022-07-25T00:58:40.398Z,98.10
2022-07-25T01:01:10.059Z,98.30
2022-07-25T01:03:37.533Z,98.10
2022-07-25T01:06:06.831Z,98.00
2022-07-25T01:08:35.161Z,98.30
2022-07-25T01:11:03.494Z,98.30
2022-07-25T01:13:34.718Z,98.60
2022-07-25T01:16:02.319Z,98.60
2022-07-25T01:18:30.130Z,98.80
2022-07-25T01:20:57.842Z,98.80
2022-07-25T01:23:25.292Z,98.90
2022-07-25T01:25:52.722Z,99.10
2022-07-25T01:28:20.520Z,99.10
2022-07-25T01:30:48.384Z,98.80
2022-07-25T01:33:19.946Z,98.90
2022-07-25T01:35:48.328Z,98.60
2022-07-25T01:38:16.324Z,98.90
2022-07-25T01:40:44.941Z,99.00
2022-07-25T01:43:12.736Z,98.90
2022-07-25T01:45:41.310Z,99.00
2022-07-25T01:48:10.340Z,98.80
2022-07-25T01:50:37.824Z,98.90
2022-07-25T01:53:06.851Z,98.90
2022-07-25T01:55:34.742Z,98.80
2022-07-25T01:58:02.347Z,98.60
2022-07-25T02:00:29.902Z,98.40
2022-07-25T02:03:33.815Z,98.60
2022-07-25T02:06:03.508Z,98.20
2022-07-25T02:08:31.502Z,98.00
2022-07-25T02:10:58.991Z,97.90
2022-07-25T02:13:26.799Z,97.80
2022-07-25T02:15:54.664Z,97.80
2022-07-25T02:18:22.185Z,97.80
2022-07-25T02:20:49.815Z,97.80
2022-07-25T02:23:17.771Z,97.70
2022-07-25T02:25:46.502Z,97.70
2022-07-25T02:28:13.899Z,97.90
2022-07-25T02:30:41.384Z,97.80
2022-07-25T02:33:09.081Z,98.20
2022-07-25T02:35:36.792Z,98.10
2022-07-25T02:38:05.357Z,98.00
2022-07-25T02:40:34.333Z,98.30
2022-07-25T02:43:03.807Z,98.20
2022-07-25T02:45:31.570Z,98.10
2022-07-25T02:48:01.730Z,98.20
2022-07-25T02:50:34.206Z,98.40
2022-07-25T02:53:07.112Z,98.20
2022-07-25T02:55:34.842Z,98.40
2022-07-25T02:58:02.415Z,98.50
2022-07-25T03:00:30.484Z,98.40
2022-07-25T03:03:01.103Z,98.70
2022-07-25T03:05:29.494Z,98.60
2022-07-25T03:07:59.503Z,98.70
2022-07-25T03:10:27.025Z,98.60
2022-07-25T03:13:00.671Z,98.70
2022-07-25T03:15:28.574Z,98.90
2022-07-25T03:17:58.220Z,98.40
2022-07-25T03:20:26.738Z,98.70
2022-07-25T03:22:54.118Z,98.70
2022-07-25T03:25:23.939Z,98.80
2022-07-25T03:27:52.347Z,98.60
2022-07-25T03:30:19.882Z,98.70
2022-07-25T03:32:52.398Z,98.90
2022-07-25T03:35:23.218Z,98.80
2022-07-25T03:37:52.296Z,98.90
2022-07-25T03:40:35.484Z,99.00
2022-07-25T03:43:03.976Z,98.90
2022-07-25T03:45:32.670Z,98.80
2022-07-25T03:48:01.151Z,98.90
2022-07-25T03:50:31.801Z,99.00
2022-07-25T03:53:03.394Z,99.10
2022-07-25T03:55:48.820Z,99.80
2022-07-25T03:58:16.357Z,99.10
2022-07-25T04:00:45.711Z,98.90
2022-07-25T04:03:23.006Z,98.90
2022-07-25T04:05:50.463Z,98.90
2022-07-25T04:08:20.693Z,98.90
2022-07-25T04:10:58.896Z,98.90
2022-07-25T04:13:27.849Z,98.90
2022-07-25T04:15:55.586Z,98.90
2022-07-25T04:18:28.566Z,98.80
2022-07-25T04:21:12.343Z,98.80
2022-07-25T04:23:43.500Z,98.70
2022-07-25T04:26:16.495Z,98.60
2022-07-25T04:28:49.444Z,98.60
2022-07-25T04:31:20.791Z,98.70
2022-07-25T04:33:51.910Z,98.70
2022-07-25T04:36:21.515Z,99.40
2022-07-25T04:38:51.468Z,98.70
2022-07-25T04:41:22.452Z,99.10
2022-07-25T04:43:54.064Z,98.90
2022-07-25T04:46:26.824Z,99.00
2022-07-25T04:48:56.967Z,99.20
2022-07-25T04:51:24.456Z,99.00
2022-07-25T04:53:52.557Z,99.20
2022-07-25T04:56:22.555Z,99.30
2022-07-25T04:58:50.201Z,99.30
2022-07-25T05:01:18.760Z,99.30
2022-07-25T05:03:50.188Z,99.40
2022-07-25T05:07:01.290Z,99.50
2022-07-25T05:09:37.633Z,99.60
2022-07-25T05:12:08.622Z,99.60
2022-07-25T05:14:36.675Z,99.70
2022-07-25T05:17:05.958Z,99.50
2022-07-25T05:19:33.995Z,99.70
2022-07-25T05:22:02.810Z,99.60
2022-07-25T05:24:36.539Z,99.70
2022-07-25T05:27:04.633Z,99.60
2022-07-25T05:29:32.241Z,99.50
2022-07-25T05:32:05.957Z,99.30
2022-07-25T05:34:36.267Z,99.20
2022-07-25T05:37:05.213Z,99.10
2022-07-25T05:39:32.740Z,98.90
2022-07-25T05:42:00.219Z,98.70
2022-07-25T05:44:31.983Z,98.80
2022-07-25T05:47:02.114Z,98.50
2022-07-25T05:49:32.342Z,98.10
2022-07-25T05:51:59.965Z,98.30
2022-07-25T05:54:27.833Z,98.40
2022-07-25T05:56:56.217Z,98.20
2022-07-25T05:59:23.709Z,97.80
2022-07-25T06:01:53.910Z,97.70
2022-07-25T06:04:26.815Z,97.30
2022-07-25T06:06:58.620Z,96.90
2022-07-25T06:09:32.877Z,96.80
2022-07-25T06:12:02.645Z,96.80
2022-07-25T06:14:42.410Z,96.90
2022-07-25T06:17:17.996Z,97.00
2022-07-25T06:19:48.633Z,96.30
2022-07-25T06:22:20.380Z,96.20
2022-07-25T06:27:47.722Z,95.70
2022-07-25T06:30:20.180Z,95.60
2022-07-25T06:32:49.408Z,95.00
2022-07-25T06:35:19.401Z,94.60
2022-07-25T06:37:48.036Z,94.40
2022-07-25T06:40:26.826Z,94.40
2022-07-25T06:43:17.925Z,94.20
2022-07-25T06:45:49.093Z,94.00
2022-07-25T06:48:24.483Z,94.00
2022-07-25T06:50:57.433Z,93.90
2022-07-25T06:53:28.818Z,93.40
2022-07-25T06:55:56.542Z,93.30
2022-07-25T06:58:29.381Z,93.40
2022-07-25T07:01:02.966Z,93.40
2022-07-25T07:03:30.628Z,93.30
2022-07-25T07:06:00.846Z,93.40
2022-07-25T07:08:28.614Z,93.30
2022-07-25T07:11:21.201Z,93.50
2022-07-25T07:13:50.665Z,93.20
2022-07-25T07:16:20.790Z,93.40
2022-07-25T07:18:53.872Z,93.40
2022-07-25T07:21:25.802Z,93.50
2022-07-25T07:23:53.937Z,93.40
2022-07-25T07:26:22.845Z,93.40
2022-07-25T07:28:54.459Z,93.50
2022-07-25T07:31:25.054Z,93.20
2022-07-25T07:33:54.911Z,92.90
2022-07-25T07:36:23.918Z,92.90
2022-07-25T07:38:53.489Z,92.80
2022-07-25T07:41:42.638Z,92.80
2022-07-25T07:44:13.493Z,92.60
2022-07-25T07:46:42.935Z,92.60
2022-07-25T07:49:13.050Z,92.50
2022-07-25T07:51:42.261Z,92.20
2022-07-25T07:54:32.470Z,92.20
2022-07-25T07:57:05.894Z,92.00
2022-07-25T07:59:34.593Z,92.40
2022-07-25T08:02:04.391Z,92.00
2022-07-25T08:04:34.594Z,92.10
2022-07-25T08:07:02.831Z,91.60
2022-07-25T08:09:31.572Z,91.90
2022-07-25T08:12:01.309Z,91.20
2022-07-25T08:14:30.857Z,91.00
2022-07-25T08:16:59.875Z,90.70
2022-07-25T08:19:29.867Z,90.50
2022-07-25T08:22:08.015Z,90.60
2022-07-25T08:24:36.916Z,90.50
2022-07-25T08:27:05.733Z,90.50
2022-07-25T08:29:36.289Z,91.00
2022-07-25T08:32:08.424Z,90.40
2022-07-25T08:34:38.494Z,90.20
2022-07-25T08:37:18.182Z,90.30
2022-07-25T08:39:49.951Z,90.50
2022-07-25T08:42:19.348Z,90.60
2022-07-25T08:44:51.607Z,90.70
2022-07-25T08:47:23.664Z,90.00
2022-07-25T08:49:54.971Z,89.50
2022-07-25T08:52:25.434Z,89.30
2022-07-25T08:54:54.738Z,88.90
2022-07-25T08:57:24.973Z,90.10
2022-07-25T08:59:55.033Z,89.00
2022-07-25T09:02:30.872Z,89.30
2022-07-25T09:05:02.622Z,90.40
2022-07-25T09:07:35.252Z,90.20
2022-07-25T09:10:16.794Z,90.10
2022-07-25T09:12:53.862Z,90.10
2022-07-25T09:15:31.718Z,90.00
2022-07-25T09:18:06.286Z,90.00
2022-07-25T09:20:54.465Z,89.50
2022-07-25T09:23:34.734Z,89.50
2022-07-25T09:26:15.241Z,89.90
2022-07-25T09:28:50.379Z,90.20
2022-07-25T09:31:20.855Z,90.30
2022-07-25T09:33:51.942Z,90.50
2022-07-25T09:36:24.185Z,90.70
2022-07-25T09:38:56.401Z,90.70
2022-07-25T09:41:35.723Z,90.70
2022-07-25T09:44:04.980Z,90.70
2022-07-25T09:46:35.541Z,90.20
2022-07-25T09:49:03.963Z,91.10
2022-07-25T09:51:34.873Z,89.60
2022-07-25T09:54:05.697Z,90.10
2022-07-25T09:56:35.878Z,88.70
2022-07-25T09:59:07.136Z,88.90
2022-07-25T10:01:50.042Z,87.50
2022-07-25T10:04:25.633Z,86.60
2022-07-25T10:07:12.512Z,87.10
2022-07-25T10:09:46.031Z,87.10
2022-07-25T10:12:15.096Z,86.70
2022-07-25T10:14:43.220Z,87.70
2022-07-25T10:17:20.667Z,88.10
2022-07-25T10:19:58.278Z,87.80
2022-07-25T10:22:55.901Z,87.30
2022-07-25T10:25:25.013Z,87.10
2022-07-25T10:28:01.389Z,87.20
2022-07-25T10:30:40.269Z,87.10
2022-07-25T10:33:17.782Z,87.20
2022-07-25T10:35:47.718Z,86.50
2022-07-25T10:38:25.603Z,86.20
2022-07-25T10:40:56.675Z,86.50
2022-07-25T10:43:28.204Z,85.20
2022-07-25T10:45:59.148Z,84.90
2022-07-25T10:48:28.219Z,84.20
2022-07-25T10:51:00.476Z,84.10
2022-07-25T10:53:33.907Z,83.80
2022-07-25T10:56:21.206Z,84.40
2022-07-25T10:58:58.418Z,82.60
2022-07-25T11:01:28.953Z,81.60
2022-07-25T11:04:03.265Z,81.70
2022-07-25T11:06:33.028Z,81.80
2022-07-25T11:09:01.509Z,82.20
2022-07-25T11:11:35.417Z,82.00
2022-07-25T11:14:06.794Z,81.50
2022-07-25T11:16:35.870Z,81.90
2022-07-25T11:19:15.821Z,82.70
2022-07-25T11:21:44.799Z,81.90
2022-07-25T11:24:17.953Z,82.20
2022-07-25T11:26:49.158Z,81.60
2022-07-25T11:29:21.597Z,81.60
2022-07-25T11:31:54.518Z,81.80
2022-07-25T11:34:31.616Z,82.20
2022-07-25T11:37:03.092Z,82.50
2022-07-25T11:39:38.744Z,83.80
2022-07-25T11:42:13.183Z,84.10
2022-07-25T11:44:50.489Z,83.80
2022-07-25T11:47:35.324Z,84.80
2022-07-25T11:50:05.365Z,85.90
2022-07-25T11:52:40.193Z,87.30
2022-07-25T11:55:09.666Z,88.30
2022-07-25T11:57:39.196Z,87.90
2022-07-25T12:00:15.588Z,87.70
2022-07-25T12:02:46.028Z,87.70
2022-07-25T12:05:19.690Z,88.70
2022-07-25T12:07:50.520Z,87.70
2022-07-25T12:10:24.152Z,87.40
2022-07-25T12:12:53.604Z,86.90
2022-07-25T12:15:25.719Z,85.90
2022-07-25T12:17:55.105Z,86.40
2022-07-25T12:20:23.996Z,85.30
2022-07-25T12:22:55.403Z,85.50
2022-07-25T12:25:30.414Z,85.80
2022-07-25T12:27:59.387Z,86.80
2022-07-25T12:30:29.837Z,87.40
2022-07-25T12:32:59.062Z,87.30
2022-07-25T12:35:27.856Z,87.80
2022-07-25T12:37:57.169Z,87.70
2022-07-25T12:40:24.876Z,87.70
2022-07-25T12:42:55.251Z,87.40
2022-07-25T12:45:25.234Z,87.20
2022-07-25T12:47:52.809Z,86.90
2022-07-25T12:50:20.948Z,87.50
2022-07-25T12:52:52.191Z,86.40
2022-07-25T12:55:22.813Z,86.00
2022-07-25T12:57:51.327Z,86.00
2022-07-25T13:00:21.625Z,85.60
2022-07-25T13:02:53.224Z,85.40
2022-07-25T13:05:23.733Z,84.20
2022-07-25T13:07:54.925Z,83.60
2022-07-25T13:10:23.882Z,82.60
2022-07-25T13:12:52.156Z,82.40
2022-07-25T13:15:22.904Z,82.50
2022-07-25T13:17:52.922Z,80.90
2022-07-25T13:20:22.057Z,80.40
2022-07-25T13:22:52.428Z,80.00
2022-07-25T13:25:27.448Z,79.70
2022-07-25T13:27:58.220Z,79.20
2022-07-25T13:30:28.579Z,78.00
2022-07-25T13:32:58.756Z,77.50
2022-07-25T13:35:33.717Z,77.60
2022-07-25T13:38:05.275Z,77.70
2022-07-25T13:40:38.026Z,77.80
2022-07-25T13:43:12.971Z,76.80
2022-07-25T13:45:42.442Z,76.00
2022-07-25T13:48:29.105Z,75.90
2022-07-25T13:51:00.649Z,75.30
2022-07-25T13:53:33.396Z,75.70
2022-07-25T13:56:03.229Z,74.40
2022-07-25T13:58:32.225Z,74.00
2022-07-25T14:01:00.389Z,73.20
2022-07-25T14:03:29.459Z,73.00
2022-07-25T14:05:58.889Z,73.60
2022-07-25T14:08:27.665Z,72.10
2022-07-25T14:10:56.794Z,72.10
2022-07-25T14:13:26.998Z,72.10
2022-07-25T14:15:58.978Z,70.00
2022-07-25T14:18:30.588Z,71.20
2022-07-25T14:20:59.656Z,71.50
2022-07-25T14:23:30.205Z,72.20
2022-07-25T14:25:58.660Z,72.50
2022-07-25T14:28:27.084Z,73.50
2022-07-25T14:30:55.259Z,73.50
2022-07-25T14:33:25.545Z,74.50
2022-07-25T14:36:01.761Z,74.90
2022-07-25T14:38:34.716Z,75.20
2022-07-25T14:41:13.254Z,75.60
2022-07-25T14:43:42.135Z,76.10
2022-07-25T14:46:11.894Z,78.10
2022-07-25T14:48:39.674Z,75.60
2022-07-25T14:51:08.728Z,74.20
2022-07-25T14:53:37.100Z,73.60
2022-07-25T14:56:18.097Z,74.60
2022-07-25T14:59:09.081Z,73.20
2022-07-25T15:01:38.707Z,74.40
2022-07-25T15:04:09.907Z,74.80
2022-07-25T15:06:38.762Z,75.10
2022-07-25T15:09:07.266Z,75.00
2022-07-25T15:12:04.049Z,76.30
2022-07-25T15:14:33.151Z,75.10
2022-07-25T15:17:07.311Z,76.10
2022-07-25T15:19:38.679Z,75.60
2022-07-25T15:22:07.431Z,75.70
2022-07-25T15:24:50.235Z,75.40
2022-07-25T15:27:27.477Z,76.30
2022-07-25T15:29:57.884Z,75.80
2022-07-25T15:32:26.594Z,75.70
2022-07-25T15:34:57.119Z,75.80
2022-07-25T15:37:24.909Z,75.00
2022-07-25T15:39:57.629Z,74.30
2022-07-25T15:42:30.001Z,73.80
2022-07-25T15:45:22.355Z,73.50
2022-07-25T15:47:51.525Z,74.60
2022-07-25T15:50:22.648Z,73.70
2022-07-25T15:52:54.088Z,74.30
2022-07-25T15:55:22.507Z,74.90
2022-07-25T15:57:52.045Z,75.40
2022-07-25T16:00:20.469Z,76.20
2022-07-25T16:02:49.109Z,76.50
2022-07-25T16:05:18.836Z,77.20
2022-07-25T16:07:47.446Z,79.00
2022-07-25T16:10:24.259Z,77.90
2022-07-25T16:12:52.217Z,78.30
2022-07-25T16:15:23.136Z,78.80
2022-07-25T16:18:00.137Z,78.00
2022-07-25T16:20:31.803Z,77.20
2022-07-25T16:23:00.793Z,77.20
2022-07-25T16:25:29.475Z,77.10
2022-07-25T16:27:58.688Z,77.40
2022-07-25T16:30:27.212Z,76.20
2022-07-25T16:32:55.612Z,76.70
2022-07-25T16:35:24.956Z,76.70
2022-07-25T16:38:09.626Z,77.90
2022-07-25T16:40:37.346Z,76.90
2022-07-25T16:43:16.117Z,76.20
2022-07-25T16:45:46.306Z,75.90
2022-07-25T16:48:27.414Z,74.10
2022-07-25T16:51:00.213Z,73.10
2022-07-25T16:53:36.081Z,72.90
2022-07-25T16:56:13.418Z,74.50
2022-07-25T16:59:03.217Z,73.60
2022-07-25T17:01:35.760Z,74.00
2022-07-25T17:04:04.753Z,74.90
2022-07-25T17:06:45.766Z,75.20
2022-07-25T17:09:35.324Z,75.80
2022-07-25T17:12:07.369Z,76.20
2022-07-25T17:14:39.551Z,77.60
2022-07-25T17:17:08.705Z,78.20
2022-07-25T17:19:41.713Z,77.40
2022-07-25T17:22:11.499Z,79.80
2022-07-25T17:24:44.580Z,77.60
2022-07-25T17:27:17.449Z,77.80
2022-07-25T17:29:49.032Z,77.80
2022-07-25T17:32:25.114Z,78.00
2022-07-25T17:34:58.324Z,78.00
2022-07-25T17:37:30.604Z,79.70
2022-07-25T17:40:03.026Z,79.30
2022-07-25T17:42:51.586Z,79.30
2022-07-25T17:45:22.520Z,78.80
2022-07-25T17:47:55.557Z,79.40
2022-07-25T17:50:29.635Z,79.00
2022-07-25T17:53:07.042Z,80.80
2022-07-25T17:55:38.916Z,80.90
2022-07-25T17:58:15.493Z,81.70
2022-07-25T18:00:59.534Z,81.80
2022-07-25T18:03:31.455Z,81.80
2022-07-25T18:06:01.120Z,84.60
2022-07-25T18:08:39.303Z,81.90
2022-07-25T18:11:14.698Z,82.80
2022-07-25T18:13:43.612Z,82.90
2022-07-25T18:16:13.786Z,83.30
2022-07-25T18:18:50.059Z,83.20
2022-07-25T18:21:31.131Z,83.50
2022-07-25T18:24:01.448Z,84.00
2022-07-25T18:26:31.095Z,85.50
2022-07-25T18:29:00.455Z,86.90
2022-07-25T18:31:29.010Z,86.30
2022-07-25T18:33:59.947Z,84.80
2022-07-25T18:36:40.027Z,83.00
2022-07-25T18:39:21.345Z,82.40
2022-07-25T18:41:52.168Z,81.00
2022-07-25T18:44:24.830Z,81.10
2022-07-25T18:46:54.463Z,81.00
2022-07-25T18:49:22.978Z,81.10
2022-07-25T18:51:54.947Z,81.40
2022-07-25T18:54:24.216Z,81.50
2022-07-25T18:57:07.702Z,82.00
2022-07-25T19:00:02.594Z,82.20
2022-07-25T19:02:37.899Z,82.90
2022-07-25T19:05:05.761Z,83.10
2022-07-25T19:07:35.642Z,82.90
2022-07-25T19:10:05.005Z,83.00
2022-07-25T19:12:53.959Z,83.10
2022-07-25T19:15:23.736Z,82.70
2022-07-25T19:17:51.684Z,83.50
2022-07-25T19:20:25.510Z,83.00
2022-07-25T19:22:53.630Z,83.10
2022-07-25T19:25:28.526Z,83.30
2022-07-25T19:28:07.234Z,83.10
2022-07-25T19:30:35.821Z,83.20
2022-07-25T19:33:05.182Z,83.90
2022-07-25T19:35:39.860Z,84.50
2022-07-25T19:38:09.005Z,84.10
2022-07-25T19:40:41.434Z,83.70
2022-07-25T19:43:09.063Z,83.80
2022-07-25T19:45:38.977Z,84.20
2022-07-25T19:48:09.882Z,84.60
2022-07-25T19:50:40.060Z,84.30
2022-07-25T19:53:08.335Z,84.50
2022-07-25T19:55:35.875Z,84.40
2022-07-25T19:58:21.655Z,84.10
2022-07-25T20:00:52.683Z,83.80
2022-07-25T20:03:23.114Z,83.50
2022-07-25T20:05:51.627Z,83.80
2022-07-25T20:08:19.228Z,83.10
2022-07-25T20:10:48.806Z,83.00
2022-07-25T20:13:16.440Z,83.20
2022-07-25T20:15:44.394Z,83.20
2022-07-25T20:18:16.021Z,83.50
2022-07-25T20:20:48.443Z,83.60
2022-07-25T20:23:18.214Z,83.80
2022-07-25T20:25:46.823Z,83.40
2022-07-25T20:28:14.571Z,83.60
2022-07-25T20:30:42.546Z,84.20
2022-07-25T20:33:11.653Z,84.00
2022-07-25T20:35:39.521Z,84.20
2022-07-25T20:38:09.406Z,84.20
2022-07-25T20:40:48.084Z,84.60
2022-07-25T20:43:17.084Z,84.80
2022-07-25T20:45:44.813Z,85.00
2022-07-25T20:48:12.677Z,85.10
2022-07-25T20:50:40.382Z,85.20
2022-07-25T20:53:08.623Z,85.20
2022-07-25T20:55:37.712Z,85.00
2022-07-25T20:58:07.507Z,85.50
2022-07-25T21:00:53.613Z,85.50
2022-07-25T21:03:21.709Z,85.70
2022-07-25T21:05:49.464Z,86.40
2022-07-25T21:08:17.671Z,87.00
2022-07-25T21:10:45.432Z,87.70
2022-07-25T21:13:13.218Z,87.80
2022-07-25T21:15:45.012Z,88.40
2022-07-25T21:18:12.641Z,89.00
2022-07-25T21:20:46.025Z,89.00
2022-07-25T21:23:15.673Z,89.70
2022-07-25T21:25:43.354Z,89.80
2022-07-25T21:28:11.128Z,90.00
2022-07-25T21:30:41.133Z,89.80
2022-07-25T21:33:14.434Z,89.70
2022-07-25T21:35:49.208Z,89.40
2022-07-25T21:38:26.054Z,88.10
2022-07-25T21:40:56.318Z,88.20
2022-07-25T21:43:24.069Z,88.60
2022-07-25T21:45:51.666Z,88.50
2022-07-25T21:48:40.770Z,88.50
2022-07-25T21:51:19.371Z,89.10
2022-07-25T21:53:51.750Z,89.00
2022-07-25T21:56:20.634Z,89.10
2022-07-25T21:58:48.272Z,88.70
2022-07-25T22:01:16.000Z,88.70
2022-07-25T22:03:43.496Z,88.90
2022-07-25T22:06:11.682Z,88.80
2022-07-25T22:08:39.512Z,89.00
2022-07-25T22:11:15.579Z,89.00
2022-07-25T22:13:54.844Z,89.40
2022-07-25T22:16:24.892Z,88.70
2022-07-25T22:18:52.289Z,88.30
2022-07-25T22:21:19.725Z,87.90
2022-07-25T22:23:47.592Z,87.80
2022-07-25T22:26:15.026Z,87.50
2022-07-25T22:28:42.805Z,87.70
2022-07-25T22:31:11.686Z,87.60
2022-07-25T22:33:39.086Z,87.30
2022-07-25T22:36:06.775Z,87.10
2022-07-25T22:38:36.748Z,86.30
2022-07-25T22:41:04.586Z,86.30
2022-07-25T22:43:56.500Z,86.70
2022-07-25T22:46:19.591Z,86.70
2022-07-25T22:48:47.647Z,86.50
2022-07-25T22:51:15.247Z,86.90
2022-07-25T22:53:42.734Z,87.10
2022-07-25T22:56:10.511Z,86.60
2022-07-25T22:58:38.216Z,86.50
2022-07-25T23:01:05.836Z,86.70
2022-07-25T23:03:34.219Z,86.50
2022-07-25T23:06:01.679Z,86.20
2022-07-25T23:08:29.324Z,85.60
2022-07-25T23:10:56.870Z,85.20
2022-07-25T23:13:24.399Z,84.90
2022-07-25T23:15:51.981Z,84.90
2022-07-25T23:18:19.684Z,85.30
2022-07-25T23:20:48.473Z,85.50
2022-07-25T23:23:15.982Z,85.70
2022-07-25T23:25:43.563Z,86.30
2022-07-25T23:28:11.993Z,86.20
2022-07-25T23:30:40.653Z,86.20
2022-07-25T23:33:08.545Z,86.80
2022-07-25T23:35:36.038Z,86.90
2022-07-25T23:38:04.524Z,87.10
2022-07-25T23:40:33.506Z,87.90
2022-07-25T23:43:01.067Z,87.50
2022-07-25T23:45:28.898Z,87.50
2022-07-25T23:47:56.873Z,87.90
2022-07-25T23:50:25.987Z,88.30
2022-07-25T23:52:53.643Z,88.10
2022-07-25T23:55:21.858Z,87.80
2022-07-25T23:57:49.889Z,88.10
